Time;durP1;ratioP1;P1;durP2;ratioP2;P2;SDS_P1;SDS_P2;PMS_P1;PMS_P2;Temp;Humidity;BMP_temperature;BMP_pressure;BME280_temperature;BME280_humidity;BME280_pressure;Samples;Min_cycle;Max_cycle;Signal;HPM_P1;HPM_P2
2023/08/24 00:01:12;;;;;;;5.43;2.05;;;21.30;99.90;;;;;;4985486;28;20037;-69
2023/08/24 00:03:39;;;;;;;5.18;1.88;;;21.30;99.90;;;;;;4988026;28;20027;-69
2023/08/24 00:06:06;;;;;;;5.72;1.67;;;21.40;99.90;;;;;;4984065;28;20435;-69
2023/08/24 00:08:32;;;;;;;3.40;2.10;;;21.40;99.90;;;;;;4991517;28;20038;-69
2023/08/24 00:10:58;;;;;;;3.83;2.00;;;21.20;99.90;;;;;;4973250;28;20122;-69
2023/08/24 00:13:25;;;;;;;4.05;2.20;;;20.70;99.90;;;;;;4988801;28;20043;-69
2023/08/24 00:15:51;;;;;;;6.03;2.60;;;20.90;99.90;;;;;;4990350;28;20038;-68
2023/08/24 00:18:19;;;;;;;5.85;2.13;;;21.00;99.90;;;;;;4974907;28;20126;-69
2023/08/24 00:20:44;;;;;;;3.95;2.10;;;21.10;99.90;;;;;;4987971;28;20026;-68
2023/08/24 00:23:10;;;;;;;5.50;1.90;;;20.90;99.90;;;;;;4989666;28;20054;-68
2023/08/24 00:25:36;;;;;;;2.88;1.70;;;20.90;99.90;;;;;;4994158;28;20092;-68
2023/08/24 00:28:02;;;;;;;2.63;1.90;;;21.00;99.90;;;;;;4992238;28;20426;-68
2023/08/24 00:30:28;;;;;;;2.53;1.38;;;20.90;99.90;;;;;;4992508;28;20121;-68
2023/08/24 00:32:53;;;;;;;5.97;2.33;;;20.90;99.90;;;;;;4990467;28;20130;-68
2023/08/24 00:35:19;;;;;;;6.03;2.60;;;20.90;99.90;;;;;;4993872;28;20082;-69
2023/08/24 00:37:45;;;;;;;3.80;2.25;;;21.00;99.90;;;;;;4991940;28;20088;-69
2023/08/24 00:40:11;;;;;;;3.42;2.03;;;20.90;99.90;;;;;;4985042;28;20026;-69
2023/08/24 00:42:43;;;;;;;3.70;2.17;;;20.90;99.90;;;;;;4990291;28;20030;-69
2023/08/24 00:45:11;;;;;;;3.85;2.13;;;20.90;99.90;;;;;;4990926;28;20023;-68
2023/08/24 00:47:44;;;;;;;4.50;2.30;;;20.90;99.90;;;;;;4987071;28;20113;-68
2023/08/24 00:50:12;;;;;;;3.78;1.95;;;21.10;99.90;;;;;;4989974;28;20038;-68
2023/08/24 00:52:41;;;;;;;3.25;2.20;;;21.20;99.90;;;;;;4993305;28;20084;-68
2023/08/24 00:55:09;;;;;;;4.38;1.80;;;21.20;99.90;;;;;;4991457;28;20394;-69
2023/08/24 00:57:37;;;;;;;2.90;1.80;;;21.30;99.90;;;;;;4989636;28;20038;-69
2023/08/24 01:00:09;;;;;;;2.65;1.85;;;21.40;99.90;;;;;;4991638;28;20109;-69
2023/08/24 01:02:36;;;;;;;3.63;1.98;;;21.80;99.90;;;;;;4982759;28;20451;-69
2023/08/24 01:05:04;;;;;;;4.32;2.00;;;21.90;99.90;;;;;;4983887;28;20022;-70
2023/08/24 01:07:31;;;;;;;5.97;2.22;;;21.90;99.90;;;;;;4990131;28;20031;-69
2023/08/24 01:09:57;;;;;;;4.28;2.10;;;22.00;99.90;;;;;;4984211;28;20034;-69
2023/08/24 01:13:05;;;;;;;3.42;2.22;;;22.20;99.90;;;;;;4993800;28;20034;-69
2023/08/24 01:15:58;;;;;;;3.70;1.98;;;22.10;99.90;;;;;;4977999;28;20560;-69
2023/08/24 01:18:26;;;;;;;5.70;2.30;;;22.20;99.90;;;;;;4985445;28;20042;-70
2023/08/24 01:20:54;;;;;;;3.38;2.13;;;22.10;99.90;;;;;;4990691;28;20054;-70
2023/08/24 01:24:18;;;;;;;4.82;2.20;;;22.20;99.90;;;;;;4992833;28;20037;-70
2023/08/24 01:26:46;;;;;;;3.33;2.20;;;22.20;99.90;;;;;;4944184;28;20051;-70
2023/08/24 01:29:12;;;;;;;3.55;2.28;;;22.10;99.90;;;;;;4990880;28;20106;-70
2023/08/24 01:31:37;;;;;;;6.55;2.33;;;22.10;99.90;;;;;;4990921;28;20034;-69
2023/08/24 01:34:03;;;;;;;4.18;2.60;;;22.10;99.90;;;;;;4992246;28;20121;-69
2023/08/24 01:36:30;;;;;;;5.78;2.15;;;22.00;99.90;;;;;;4988652;28;20035;-69
2023/08/24 01:39:14;;;;;;;5.90;2.97;;;21.90;99.90;;;;;;4989684;28;20030;-70
2023/08/24 01:41:44;;;;;;;2.70;1.95;;;21.80;99.90;;;;;;4992137;28;20034;-70
2023/08/24 01:44:14;;;;;;;3.45;1.80;;;21.70;99.90;;;;;;4991079;28;20023;-69
2023/08/24 01:46:42;;;;;;;3.08;2.05;;;22.10;99.90;;;;;;4987311;28;20038;-70
2023/08/24 01:49:14;;;;;;;3.50;2.15;;;22.50;99.90;;;;;;4991069;28;20030;-69
2023/08/24 01:51:40;;;;;;;4.47;1.83;;;22.90;99.90;;;;;;4985988;28;20101;-69
2023/08/24 01:54:06;;;;;;;4.50;2.10;;;23.10;99.90;;;;;;4990656;28;20026;-69
2023/08/24 01:56:32;;;;;;;3.40;2.10;;;23.30;99.90;;;;;;4990399;28;20502;-69
2023/08/24 01:58:57;;;;;;;4.03;2.38;;;23.50;99.90;;;;;;4992022;28;20038;-69
2023/08/24 02:01:23;;;;;;;8.27;2.45;;;23.50;99.90;;;;;;4990950;28;20423;-69
2023/08/24 02:03:50;;;;;;;4.03;1.92;;;23.10;99.90;;;;;;4991505;28;20100;-70
2023/08/24 02:06:16;;;;;;;3.53;2.00;;;22.70;99.90;;;;;;4986920;28;20430;-69
2023/08/24 02:08:42;;;;;;;4.43;2.47;;;22.40;99.90;;;;;;4985822;28;20113;-67
2023/08/24 02:11:08;;;;;;;3.35;2.30;;;22.30;99.90;;;;;;4990705;28;20475;-69
2023/08/24 02:13:34;;;;;;;3.17;2.20;;;22.00;99.90;;;;;;4989541;28;20036;-70
2023/08/24 02:16:05;;;;;;;3.55;1.85;;;21.90;99.90;;;;;;4985405;28;20034;-69
2023/08/24 02:18:31;;;;;;;6.32;2.35;;;21.70;99.90;;;;;;4991597;28;20121;-70
2023/08/24 02:20:56;;;;;;;3.80;2.20;;;21.60;99.90;;;;;;4990596;28;20042;-67
2023/08/24 02:23:22;;;;;;;4.93;2.20;;;21.60;99.90;;;;;;4967826;28;20041;-70
2023/08/24 02:25:48;;;;;;;4.30;2.42;;;21.50;99.90;;;;;;4991540;28;20073;-69
2023/08/24 02:28:14;;;;;;;16.60;3.03;;;21.50;99.90;;;;;;4989304;28;20054;-69
2023/08/24 02:30:39;;;;;;;4.20;2.50;;;21.50;99.90;;;;;;4991634;28;20630;-70
2023/08/24 02:33:06;;;;;;;4.32;2.40;;;21.40;99.90;;;;;;4984810;28;20038;-67
2023/08/24 02:35:31;;;;;;;3.35;2.03;;;21.20;99.90;;;;;;4990591;28;20065;-68
2023/08/24 02:37:57;;;;;;;4.18;2.63;;;21.00;99.90;;;;;;4999653;23;20077;-67
2023/08/24 02:40:23;;;;;;;4.63;2.22;;;20.80;99.90;;;;;;4991504;28;20391;-67
2023/08/24 02:42:49;;;;;;;3.38;2.25;;;20.90;99.90;;;;;;4984132;28;20760;-67
2023/08/24 02:45:15;;;;;;;3.95;2.30;;;21.00;99.90;;;;;;4989911;28;20038;-67
2023/08/24 02:47:40;;;;;;;4.93;2.70;;;21.00;99.90;;;;;;4981648;28;20042;-67
2023/08/24 02:50:07;;;;;;;5.68;3.22;;;20.90;99.90;;;;;;4984978;28;20088;-67
2023/08/24 02:52:33;;;;;;;7.35;2.80;;;21.00;99.90;;;;;;4988430;28;20026;-67
2023/08/24 02:54:58;;;;;;;7.07;3.08;;;21.00;99.90;;;;;;4988463;28;20540;-67
2023/08/24 02:57:25;;;;;;;4.53;2.47;;;21.00;99.90;;;;;;4989017;28;20442;-67
2023/08/24 02:59:50;;;;;;;6.93;3.15;;;21.10;99.90;;;;;;4990223;28;20026;-67
2023/08/24 03:02:16;;;;;;;5.57;3.03;;;21.20;99.90;;;;;;4989838;28;20014;-67
2023/08/24 03:04:42;;;;;;;5.43;2.80;;;21.40;99.90;;;;;;4989971;28;20124;-67
2023/08/24 03:07:08;;;;;;;10.75;3.78;;;21.40;99.90;;;;;;4990487;28;20030;-67
2023/08/24 03:09:36;;;;;;;4.20;2.20;;;21.70;99.90;;;;;;4989218;28;20097;-67
2023/08/24 03:12:03;;;;;;;3.67;2.05;;;22.00;99.90;;;;;;5003390;28;20033;-67
2023/08/24 03:14:29;;;;;;;3.17;1.75;;;22.50;99.90;;;;;;4991046;28;20394;-67
2023/08/24 03:16:54;;;;;;;6.40;2.40;;;22.80;99.90;;;;;;4991006;28;20038;-67
2023/08/24 03:19:20;;;;;;;4.72;2.15;;;23.00;99.90;;;;;;4986680;28;20100;-67
2023/08/24 03:21:46;;;;;;;2.97;1.80;;;23.20;99.90;;;;;;4991120;28;20030;-67
2023/08/24 03:24:11;;;;;;;2.80;1.63;;;23.30;99.90;;;;;;4986545;28;20034;-67
2023/08/24 03:26:37;;;;;;;5.78;2.03;;;23.20;99.90;;;;;;4989545;28;20038;-67
2023/08/24 03:29:03;;;;;;;3.22;2.05;;;23.30;99.90;;;;;;4986667;28;20038;-67
2023/08/24 03:31:29;;;;;;;2.95;1.90;;;23.40;99.90;;;;;;4991038;28;20038;-67
2023/08/24 03:33:55;;;;;;;4.05;2.42;;;22.80;99.90;;;;;;4986582;28;20046;-67
2023/08/24 03:36:20;;;;;;;4.97;1.90;;;22.10;99.90;;;;;;4993806;28;20029;-68
2023/08/24 03:38:46;;;;;;;4.05;2.38;;;21.50;99.90;;;;;;4995091;28;20041;-67
2023/08/24 03:41:12;;;;;;;3.25;2.05;;;21.80;99.90;;;;;;4990921;28;20026;-67
2023/08/24 03:43:38;;;;;;;3.08;2.03;;;21.50;99.90;;;;;;4979539;28;20541;-68
2023/08/24 03:46:05;;;;;;;5.95;2.22;;;21.20;99.90;;;;;;4986692;28;20038;-67
2023/08/24 03:48:32;;;;;;;5.38;3.08;;;20.90;99.90;;;;;;4980205;28;20038;-67
2023/08/24 03:50:58;;;;;;;4.00;2.08;;;20.60;99.90;;;;;;4982885;28;20030;-67
2023/08/24 03:53:25;;;;;;;5.40;2.85;;;20.70;99.90;;;;;;4981069;28;20510;-67
2023/08/24 03:55:52;;;;;;;4.30;2.63;;;20.80;99.90;;;;;;4981321;28;20114;-66
2023/08/24 03:58:18;;;;;;;3.38;1.65;;;21.20;99.90;;;;;;4983833;28;20023;-66
2023/08/24 04:00:44;;;;;;;5.68;2.30;;;21.70;99.90;;;;;;4989057;28;20057;-66
2023/08/24 04:03:11;;;;;;;3.30;2.05;;;21.80;99.90;;;;;;4987660;28;20026;-66
2023/08/24 04:05:36;;;;;;;4.70;2.38;;;21.90;99.90;;;;;;4987918;28;20022;-66
2023/08/24 04:08:02;;;;;;;3.05;2.10;;;21.70;99.90;;;;;;4986640;28;20034;-66
2023/08/24 04:10:31;;;;;;;6.30;2.50;;;21.40;99.90;;;;;;4993341;28;20037;-68
2023/08/24 04:12:57;;;;;;;4.43;2.28;;;21.50;99.90;;;;;;5001398;28;20376;-67
2023/08/24 04:15:23;;;;;;;3.95;2.10;;;21.50;99.90;;;;;;4988976;28;20041;-60
2023/08/24 04:17:49;;;;;;;3.95;2.53;;;21.40;99.90;;;;;;4991909;28;20250;-59
2023/08/24 04:20:15;;;;;;;4.43;2.08;;;21.00;99.90;;;;;;4976258;28;20034;-61
2023/08/24 04:22:42;;;;;;;4.70;2.78;;;21.10;99.90;;;;;;4976177;28;20033;-60
2023/08/24 04:25:08;;;;;;;5.00;2.95;;;21.00;99.90;;;;;;4987156;28;20098;-61
2023/08/24 04:27:35;;;;;;;7.25;2.58;;;21.00;99.90;;;;;;4989155;28;20465;-61
2023/08/24 04:30:00;;;;;;;8.88;2.60;;;21.30;99.90;;;;;;4983372;28;20487;-61
2023/08/24 04:32:27;;;;;;;6.22;3.50;;;21.50;99.90;;;;;;4985196;28;20054;-61
2023/08/24 04:34:53;;;;;;;4.25;2.45;;;21.80;99.90;;;;;;4990582;28;20109;-61
2023/08/24 04:37:19;;;;;;;8.57;2.80;;;22.10;99.90;;;;;;4993603;28;20692;-61
2023/08/24 04:39:45;;;;;;;8.85;2.70;;;22.30;99.90;;;;;;4988036;28;20038;-61
2023/08/24 04:42:11;;;;;;;6.53;2.90;;;22.60;99.90;;;;;;4983348;28;20018;-61
2023/08/24 04:44:37;;;;;;;5.53;2.85;;;22.70;99.90;;;;;;4957259;28;20529;-60
2023/08/24 04:47:02;;;;;;;4.03;2.30;;;22.60;99.90;;;;;;4981732;28;20031;-55
2023/08/24 04:49:30;;;;;;;7.75;3.33;;;22.40;99.90;;;;;;4984567;28;20026;-56
2023/08/24 04:51:56;;;;;;;5.70;2.50;;;22.00;99.90;;;;;;4980608;28;20094;-55
2023/08/24 04:54:21;;;;;;;3.25;2.08;;;21.70;99.90;;;;;;4990693;28;20038;-55
2023/08/24 04:56:47;;;;;;;5.03;2.53;;;21.50;99.90;;;;;;4992725;28;20038;-56
2023/08/24 04:59:13;;;;;;;4.45;2.60;;;21.40;99.90;;;;;;4988347;28;20034;-55
2023/08/24 05:01:38;;;;;;;6.70;2.50;;;21.20;99.90;;;;;;4990454;28;20034;-55
2023/08/24 05:04:04;;;;;;;4.72;2.70;;;21.10;99.90;;;;;;4990838;28;20459;-55
2023/08/24 05:06:30;;;;;;;5.82;3.50;;;21.00;99.90;;;;;;4991067;28;20039;-54
2023/08/24 05:08:56;;;;;;;4.07;2.40;;;20.90;99.90;;;;;;4985972;28;20034;-52
2023/08/24 05:11:25;;;;;;;4.03;2.40;;;20.90;99.90;;;;;;4994365;28;20118;-52
2023/08/24 05:13:51;;;;;;;7.57;3.20;;;20.90;99.90;;;;;;4979454;28;20085;-53
2023/08/24 05:16:17;;;;;;;6.82;3.42;;;21.30;99.90;;;;;;4990701;28;20029;-56
2023/08/24 05:18:43;;;;;;;5.38;2.60;;;21.80;99.90;;;;;;4988870;28;20034;-51
2023/08/24 05:21:08;;;;;;;10.57;3.38;;;21.70;99.90;;;;;;4987163;28;20035;-54
2023/08/24 05:23:35;;;;;;;4.13;2.47;;;21.50;99.90;;;;;;4988369;28;20054;-53
2023/08/24 05:26:02;;;;;;;3.75;2.35;;;21.50;99.90;;;;;;4971730;28;20030;-57
2023/08/24 05:28:30;;;;;;;3.67;2.42;;;21.40;99.90;;;;;;4990368;28;20030;-55
2023/08/24 05:30:56;;;;;;;4.22;2.35;;;21.60;99.90;;;;;;4990518;28;20038;-57
2023/08/24 05:33:24;;;;;;;4.88;2.10;;;21.90;99.90;;;;;;4990157;28;20153;-54
2023/08/24 05:35:51;;;;;;;6.82;2.72;;;22.00;99.90;;;;;;4990937;28;20045;-56
2023/08/24 05:38:18;;;;;;;3.20;2.00;;;22.00;99.90;;;;;;4990214;28;20042;-56
2023/08/24 05:40:46;;;;;;;4.25;2.15;;;21.70;99.90;;;;;;4992046;28;20052;-58
2023/08/24 05:43:12;;;;;;;9.88;2.92;;;21.60;99.90;;;;;;4989688;28;20399;-59
2023/08/24 05:45:40;;;;;;;5.40;2.42;;;21.60;99.90;;;;;;4991864;28;20038;-59
2023/08/24 05:48:07;;;;;;;5.00;2.40;;;21.60;99.90;;;;;;4988587;28;20037;-55
2023/08/24 05:50:33;;;;;;;4.10;2.20;;;21.60;99.90;;;;;;4985949;28;20088;-58
2023/08/24 05:52:59;;;;;;;7.05;2.03;;;21.80;99.90;;;;;;4989709;28;20038;-57
2023/08/24 05:55:24;;;;;;;6.00;2.15;;;22.00;99.90;;;;;;4991654;28;20034;-53
2023/08/24 05:57:50;;;;;;;5.72;2.35;;;22.20;99.90;;;;;;4989695;28;20030;-65
2023/08/24 06:00:16;;;;;;;5.32;1.98;;;22.30;99.90;;;;;;4975628;28;20541;-61
2023/08/24 06:02:42;;;;;;;5.70;2.30;;;22.40;99.90;;;;;;4991479;28;20487;-60
2023/08/24 06:05:08;;;;;;;3.08;1.90;;;22.30;99.90;;;;;;4990514;28;20033;-60
2023/08/24 06:07:35;;;;;;;4.40;2.28;;;22.50;99.90;;;;;;4991457;28;20664;-60
2023/08/24 06:10:01;;;;;;;5.55;2.67;;;22.60;99.90;;;;;;5004771;28;20038;-60
2023/08/24 06:12:27;;;;;;;3.33;2.10;;;22.70;99.90;;;;;;5010801;28;20096;-60
2023/08/24 06:14:52;;;;;;;6.57;2.25;;;22.70;99.90;;;;;;4991782;28;20509;-63
2023/08/24 06:17:18;;;;;;;4.32;2.15;;;22.50;99.90;;;;;;4991491;28;20117;-63
2023/08/24 06:19:44;;;;;;;6.55;2.20;;;22.70;99.90;;;;;;4989927;28;20049;-63
2023/08/24 06:22:09;;;;;;;8.90;2.25;;;22.30;99.90;;;;;;4991602;28;20034;-63
2023/08/24 06:24:36;;;;;;;4.70;2.40;;;22.00;99.90;;;;;;4988307;28;20076;-63
2023/08/24 06:27:01;;;;;;;8.02;2.78;;;22.10;99.90;;;;;;4990948;28;20478;-64
2023/08/24 06:29:30;;;;;;;3.83;2.00;;;22.00;99.90;;;;;;4989428;28;20038;-63
2023/08/24 06:31:56;;;;;;;4.50;2.53;;;21.70;99.90;;;;;;4991588;28;20030;-63
2023/08/24 06:34:23;;;;;;;3.05;1.80;;;21.90;99.90;;;;;;4988955;28;20065;-62
2023/08/24 06:36:50;;;;;;;3.58;2.10;;;22.20;99.90;;;;;;4981763;28;20054;-63
2023/08/24 06:39:16;;;;;;;3.97;2.10;;;22.50;99.90;;;;;;4988889;28;20026;-62
2023/08/24 06:41:42;;;;;;;7.82;2.65;;;22.20;99.90;;;;;;4990595;28;20100;-63
2023/08/24 06:44:08;;;;;;;4.45;2.40;;;22.00;99.90;;;;;;4988607;28;20062;-62
2023/08/24 06:46:34;;;;;;;4.45;2.55;;;21.80;99.90;;;;;;4991250;28;20069;-70
2023/08/24 06:48:59;;;;;;;4.85;2.58;;;21.60;99.90;;;;;;4983165;28;20066;-69
2023/08/24 06:51:26;;;;;;;5.68;2.58;;;21.50;99.90;;;;;;4982657;28;20030;-69
2023/08/24 06:53:52;;;;;;;3.33;2.20;;;21.40;99.90;;;;;;4984842;28;20037;-70
2023/08/24 06:56:18;;;;;;;6.13;2.70;;;21.40;99.90;;;;;;4985671;28;20104;-70
2023/08/24 06:58:45;;;;;;;5.28;2.55;;;21.60;99.90;;;;;;4989168;28;20068;-70
2023/08/24 07:01:11;;;;;;;3.92;2.30;;;21.80;99.90;;;;;;4989940;28;20117;-70
2023/08/24 07:03:37;;;;;;;3.60;2.30;;;21.90;99.90;;;;;;4989507;28;20079;-70
2023/08/24 07:06:08;;;;;;;3.75;2.60;;;22.00;99.90;;;;;;4973240;28;20101;-70
2023/08/24 07:08:34;;;;;;;6.00;2.33;;;22.00;99.90;;;;;;4989819;28;20030;-70
2023/08/24 07:11:03;;;;;;;4.88;2.60;;;22.10;99.90;;;;;;4998180;28;20104;-70
2023/08/24 07:13:28;;;;;;;5.78;2.47;;;22.10;99.90;;;;;;5001422;28;20041;-69
2023/08/24 07:15:55;;;;;;;6.60;3.13;;;22.20;99.90;;;;;;4990796;28;20034;-70
2023/08/24 07:18:21;;;;;;;4.00;2.72;;;22.30;99.90;;;;;;4972831;28;20114;-70
2023/08/24 07:20:47;;;;;;;4.30;2.58;;;22.30;99.90;;;;;;4990883;28;20034;-71
2023/08/24 07:23:13;;;;;;;4.00;2.65;;;22.30;99.90;;;;;;4988223;28;20169;-71
2023/08/24 07:25:38;;;;;;;4.65;2.35;;;22.60;99.90;;;;;;4990766;28;20050;-70
2023/08/24 07:28:05;;;;;;;3.63;2.03;;;22.80;99.90;;;;;;4988342;28;20035;-70
2023/08/24 07:30:31;;;;;;;4.53;2.72;;;22.90;99.90;;;;;;4990586;28;20041;-70
2023/08/24 07:32:57;;;;;;;4.15;2.58;;;23.20;99.90;;;;;;4988087;28;20053;-71
2023/08/24 07:35:24;;;;;;;3.63;2.17;;;23.50;99.90;;;;;;4990582;28;20034;-71
2023/08/24 07:37:53;;;;;;;3.70;2.40;;;23.70;99.90;;;;;;4989201;28;20030;-70
2023/08/24 07:40:19;;;;;;;5.40;2.50;;;23.90;99.90;;;;;;4981633;28;20085;-71
2023/08/24 07:42:46;;;;;;;4.07;2.92;;;24.10;99.90;;;;;;4972071;28;20557;-70
2023/08/24 07:45:13;;;;;;;3.65;2.08;;;24.20;99.90;;;;;;4989267;28;20121;-71
2023/08/24 07:47:39;;;;;;;3.15;1.83;;;24.30;99.90;;;;;;4988716;28;20577;-70
2023/08/24 07:50:07;;;;;;;5.38;3.08;;;24.20;99.90;;;;;;4988168;28;20073;-71
2023/08/24 07:52:32;;;;;;;4.80;2.10;;;24.20;99.90;;;;;;4989888;28;20026;-71
2023/08/24 07:55:00;;;;;;;5.35;2.63;;;24.30;99.90;;;;;;4993192;28;20041;-66
2023/08/24 07:57:26;;;;;;;3.38;2.13;;;24.50;99.90;;;;;;4988543;28;20034;-66
2023/08/24 07:59:52;;;;;;;2.42;1.70;;;24.60;99.90;;;;;;4988773;28;20026;-66
2023/08/24 08:02:18;;;;;;;3.25;1.75;;;24.60;99.90;;;;;;4993891;28;20037;-63
2023/08/24 08:04:44;;;;;;;5.50;2.67;;;24.80;99.90;;;;;;4991762;28;20105;-62
2023/08/24 08:07:10;;;;;;;9.52;2.30;;;24.90;99.90;;;;;;4993990;28;20045;-63
2023/08/24 08:09:40;;;;;;;2.72;1.80;;;24.90;99.90;;;;;;4992792;28;20034;-62
2023/08/24 08:12:06;;;;;;;2.90;1.75;;;24.90;99.90;;;;;;5001419;28;20027;-62
2023/08/24 08:14:32;;;;;;;4.13;2.10;;;25.00;99.90;;;;;;4992314;28;20057;-63
2023/08/24 08:16:57;;;;;;;3.70;2.30;;;25.10;99.90;;;;;;4999417;28;20437;-62
2023/08/24 08:19:25;;;;;;;2.75;1.83;;;25.20;99.90;;;;;;5001307;28;20041;-62
2023/08/24 08:21:51;;;;;;;3.80;2.35;;;25.30;99.90;;;;;;4997191;28;20109;-61
2023/08/24 08:24:17;;;;;;;3.75;1.95;;;25.50;99.90;;;;;;4996272;28;20113;-63
2023/08/24 08:26:42;;;;;;;2.55;1.60;;;25.60;99.90;;;;;;4993757;28;20026;-63
2023/08/24 08:29:08;;;;;;;4.15;2.17;;;25.30;99.90;;;;;;4998283;28;20037;-62
2023/08/24 08:31:35;;;;;;;5.30;2.28;;;25.40;99.90;;;;;;5001134;28;20048;-63
2023/08/24 08:34:01;;;;;;;3.55;1.92;;;25.70;99.90;;;;;;5003590;28;20031;-63
2023/08/24 08:36:27;;;;;;;6.55;2.17;;;25.70;99.90;;;;;;5002572;28;20072;-62
2023/08/24 08:38:52;;;;;;;3.10;1.63;;;25.80;99.90;;;;;;5005330;23;20781;-59
2023/08/24 08:41:24;;;;;;;3.78;1.83;;;25.80;99.90;;;;;;4987374;28;20102;-59
2023/08/24 08:43:50;;;;;;;4.97;1.77;;;25.70;99.90;;;;;;4984993;28;20509;-59
2023/08/24 08:46:16;;;;;;;3.50;1.67;;;25.70;99.90;;;;;;4986134;28;20026;-59
2023/08/24 08:48:44;;;;;;;5.20;1.60;;;25.80;99.90;;;;;;4982988;28;20034;-59
2023/08/24 08:51:11;;;;;;;4.35;1.50;;;26.00;99.90;;;;;;5001608;28;20101;-59
2023/08/24 08:53:37;;;;;;;5.38;1.90;;;26.10;99.90;;;;;;5003746;28;20130;-59
2023/08/24 08:56:04;;;;;;;5.55;1.60;;;26.30;99.90;;;;;;4999378;28;20032;-59
2023/08/24 08:58:31;;;;;;;2.60;1.40;;;26.40;99.90;;;;;;4992947;28;20122;-59
2023/08/24 09:00:59;;;;;;;2.35;1.48;;;26.60;99.90;;;;;;4989013;28;20042;-59
2023/08/24 09:03:28;;;;;;;1.95;1.38;;;26.50;99.90;;;;;;4990339;28;20065;-59
2023/08/24 09:05:54;;;;;;;6.25;1.75;;;26.50;99.90;;;;;;4988027;28;20076;-59
2023/08/24 09:08:21;;;;;;;2.58;1.70;;;26.60;99.90;;;;;;4991669;28;20030;-59
2023/08/24 09:10:47;;;;;;;3.47;1.33;;;26.80;99.90;;;;;;5004348;28;20064;-59
2023/08/24 09:13:13;;;;;;;2.33;1.40;;;27.00;99.90;;;;;;4992644;28;20023;-59
2023/08/24 09:15:39;;;;;;;2.40;1.27;;;27.00;99.50;;;;;;4988280;28;20049;-59
2023/08/24 09:18:05;;;;;;;2.75;1.20;;;27.20;99.60;;;;;;4992925;28;20038;-59
2023/08/24 09:20:30;;;;;;;5.07;1.85;;;27.30;99.40;;;;;;4988300;28;20479;-59
2023/08/24 09:22:58;;;;;;;1.90;1.23;;;27.50;98.80;;;;;;4991452;28;20053;-59
2023/08/24 09:25:27;;;;;;;2.85;2.03;;;27.80;98.90;;;;;;4987981;28;20038;-59
2023/08/24 09:28:03;;;;;;;2.78;1.30;;;27.70;98.20;;;;;;4992563;28;20557;-59
2023/08/24 09:30:37;;;;;;;4.75;1.88;;;27.80;98.70;;;;;;4990884;28;20141;-59
2023/08/24 09:33:13;;;;;;;1.77;1.20;;;27.70;98.10;;;;;;4991092;28;20064;-59
2023/08/24 09:35:39;;;;;;;3.20;1.58;;;27.90;98.20;;;;;;4986969;28;20424;-59
2023/08/24 09:38:21;;;;;;;2.38;1.30;;;28.10;97.90;;;;;;4987411;28;20072;-59
2023/08/24 09:40:52;;;;;;;3.67;1.40;;;28.20;97.20;;;;;;4990750;28;20398;-59
2023/08/24 09:43:17;;;;;;;;;;;28.40;97.20;;;;;;4991078;28;20022;-59
2023/08/24 09:45:54;;;;;;;2.40;1.52;;;28.50;97.10;;;;;;4987904;28;20341;-59
2023/08/24 09:48:21;;;;;;;2.78;1.40;;;28.60;96.60;;;;;;4987509;28;20392;-59
2023/08/24 09:50:50;;;;;;;3.22;1.25;;;28.70;97.20;;;;;;4984889;28;20030;-59
2023/08/24 09:53:23;;;;;;;6.63;1.48;;;28.70;97.00;;;;;;4990725;28;20024;-59
2023/08/24 09:55:58;;;;;;;8.38;1.25;;;29.10;97.20;;;;;;4991502;28;20041;-59
2023/08/24 09:58:25;;;;;;;10.80;2.30;;;29.30;96.10;;;;;;4986268;28;20031;-59
2023/08/24 10:00:51;;;;;;;3.92;1.27;;;29.30;95.70;;;;;;4987269;28;20040;-59
2023/08/24 10:03:21;;;;;;;2.30;0.93;;;29.40;95.50;;;;;;4990478;28;20126;-59
2023/08/24 10:05:59;;;;;;;2.05;1.20;;;29.50;95.20;;;;;;4989406;28;20034;-59
2023/08/24 10:08:29;;;;;;;1.98;1.33;;;29.40;94.80;;;;;;4990706;28;20034;-59
2023/08/24 10:10:58;;;;;;;2.40;1.48;;;29.50;94.50;;;;;;4993834;28;20068;-59
2023/08/24 10:13:44;;;;;;;2.35;1.23;;;29.50;94.30;;;;;;4990836;28;20088;-59
2023/08/24 10:16:12;;;;;;;2.67;1.10;;;29.50;94.30;;;;;;4989025;28;20037;-59
2023/08/24 10:18:40;;;;;;;4.32;1.98;;;29.60;94.30;;;;;;4988825;28;20038;-59
2023/08/24 10:21:08;;;;;;;1.40;1.00;;;29.70;93.60;;;;;;4991513;28;20443;-59
2023/08/24 10:23:35;;;;;;;1.38;1.00;;;29.80;94.00;;;;;;4989340;28;20037;-59
2023/08/24 10:26:07;;;;;;;4.30;1.42;;;29.80;94.20;;;;;;4989397;28;20031;-59
2023/08/24 10:28:33;;;;;;;2.55;1.20;;;29.90;94.10;;;;;;4989474;28;20042;-59
2023/08/24 10:31:01;;;;;;;2.83;1.15;;;29.80;94.00;;;;;;4985212;28;20042;-59
2023/08/24 10:33:27;;;;;;;3.55;1.48;;;30.00;93.80;;;;;;4967989;28;20105;-59
2023/08/24 10:35:53;;;;;;;2.92;1.42;;;30.20;93.90;;;;;;4967823;28;20035;-59
2023/08/24 10:38:27;;;;;;;3.47;1.40;;;30.20;93.90;;;;;;4975606;28;20080;-59
2023/08/24 10:40:54;;;;;;;2.72;1.40;;;30.30;92.60;;;;;;4986777;28;20098;-59
2023/08/24 10:43:22;;;;;;;3.70;1.40;;;30.30;92.80;;;;;;4989845;28;20036;-59
2023/08/24 10:46:02;;;;;;;3.08;1.20;;;30.50;92.80;;;;;;4987693;28;20100;-59
2023/08/24 10:49:00;;;;;;;2.47;1.35;;;30.70;93.10;;;;;;4971633;28;20035;-59
2023/08/24 10:51:30;;;;;;;3.00;1.20;;;30.80;92.70;;;;;;4981778;28;20116;-59
2023/08/24 10:53:59;;;;;;;3.35;1.30;;;30.90;92.40;;;;;;4986338;28;20019;-59
2023/08/24 10:56:40;;;;;;;2.80;1.15;;;31.30;92.00;;;;;;4989832;28;20041;-64
2023/08/24 10:59:16;;;;;;;;;;;31.30;90.60;;;;;;4987467;28;20135;-65
2023/08/24 11:02:03;;;;;;;1.70;1.10;;;31.30;90.20;;;;;;4991303;28;19913;-66
2023/08/24 11:04:29;;;;;;;2.83;1.10;;;31.60;90.70;;;;;;4988509;28;20022;-66
2023/08/24 11:07:02;;;;;;;3.83;1.35;;;31.50;90.70;;;;;;4991101;28;20114;-66
2023/08/24 11:09:49;;;;;;;2.10;1.15;;;31.50;90.20;;;;;;4972972;28;20022;-66
2023/08/24 11:12:15;;;;;;;4.47;1.70;;;31.90;89.10;;;;;;4989710;28;20034;-67
2023/08/24 11:14:54;;;;;;;1.50;0.98;;;32.10;87.20;;;;;;4986194;28;20026;-66
2023/08/24 11:17:21;;;;;;;1.88;1.00;;;32.10;89.10;;;;;;4967415;28;20089;-67
2023/08/24 11:19:54;;;;;;;2.97;1.35;;;32.20;88.90;;;;;;4994094;28;20023;-66
2023/08/24 11:22:21;;;;;;;1.73;0.95;;;32.30;87.10;;;;;;4987388;28;20034;-66
2023/08/24 11:24:47;;;;;;;2.65;1.33;;;32.10;86.20;;;;;;4984308;28;20019;-66
2023/08/24 11:27:13;;;;;;;2.70;1.50;;;32.10;85.20;;;;;;4989927;28;20038;-66
2023/08/24 11:29:39;;;;;;;2.40;1.00;;;32.10;85.50;;;;;;4989178;28;20384;-67
2023/08/24 11:32:05;;;;;;;2.80;1.40;;;32.30;85.40;;;;;;4990102;28;20054;-66
2023/08/24 11:34:31;;;;;;;1.95;1.00;;;32.30;85.30;;;;;;4984255;28;20079;-67
2023/08/24 11:36:57;;;;;;;1.88;1.00;;;32.10;84.40;;;;;;4991302;28;20397;-67
2023/08/24 11:39:25;;;;;;;3.45;1.30;;;32.30;85.40;;;;;;4989576;28;20042;-66
2023/08/24 11:42:05;;;;;;;3.70;1.60;;;32.30;85.40;;;;;;4990562;28;20458;-66
2023/08/24 11:44:48;;;;;;;3.08;1.65;;;32.20;85.50;;;;;;4991910;28;20053;-66
2023/08/24 11:47:15;;;;;;;3.40;1.70;;;31.80;85.60;;;;;;4994166;28;20765;-66
2023/08/24 11:49:42;;;;;;;3.65;1.25;;;31.70;87.20;;;;;;4992630;28;20045;-67
2023/08/24 11:52:08;;;;;;;3.13;1.35;;;31.80;86.10;;;;;;4992836;28;20049;-66
2023/08/24 11:54:38;;;;;;;4.10;1.20;;;31.70;85.10;;;;;;4990835;28;20038;-66
2023/08/24 11:57:10;;;;;;;2.83;1.63;;;31.90;86.70;;;;;;4993609;28;20034;-66
2023/08/24 11:59:43;;;;;;;2.97;1.67;;;32.00;87.00;;;;;;4991993;28;20030;-66
2023/08/24 12:02:11;;;;;;;3.15;1.50;;;31.90;87.70;;;;;;4994009;28;20041;-66
2023/08/24 12:04:43;;;;;;;3.95;2.05;;;32.00;86.80;;;;;;4975878;28;20033;-67
2023/08/24 12:07:12;;;;;;;3.28;1.67;;;31.90;88.20;;;;;;4994058;28;20753;-66
2023/08/24 12:09:42;;;;;;;1.90;1.42;;;32.10;87.40;;;;;;4991903;28;20038;-66
2023/08/24 12:12:15;;;;;;;2.58;1.10;;;32.10;86.40;;;;;;4992364;28;20042;-66
2023/08/24 12:14:42;;;;;;;4.05;2.05;;;31.90;87.40;;;;;;4992011;28;20490;-66
2023/08/24 12:17:09;;;;;;;2.40;1.40;;;32.00;86.10;;;;;;4993159;28;20117;-66
2023/08/24 12:19:35;;;;;;;2.70;1.15;;;32.10;86.70;;;;;;4988891;28;20110;-66
2023/08/24 12:22:01;;;;;;;1.80;1.20;;;32.00;87.00;;;;;;4993000;28;20399;-66
2023/08/24 12:24:27;;;;;;;3.08;1.33;;;32.10;87.20;;;;;;4988725;28;20030;-66
2023/08/24 12:26:57;;;;;;;2.90;1.60;;;31.90;87.80;;;;;;4988104;28;20033;-66
2023/08/24 12:29:23;;;;;;;1.98;1.25;;;32.30;87.60;;;;;;4978113;28;20030;-66
2023/08/24 12:31:49;;;;;;;3.63;1.60;;;32.30;87.80;;;;;;4993556;28;20034;-66
2023/08/24 12:34:16;;;;;;;5.63;1.70;;;32.10;87.00;;;;;;4988686;28;20035;-66
2023/08/24 12:36:43;;;;;;;3.13;1.60;;;32.20;86.70;;;;;;4992359;28;20041;-67
2023/08/24 12:39:18;;;;;;;2.40;1.23;;;32.30;88.30;;;;;;4987390;28;20039;-65
2023/08/24 12:41:43;;;;;;;2.00;1.20;;;32.70;88.10;;;;;;4992335;28;20104;-64
2023/08/24 12:44:09;;;;;;;2.42;1.40;;;32.70;86.90;;;;;;4992384;28;20038;-64
2023/08/24 12:46:35;;;;;;;4.00;1.55;;;32.90;87.90;;;;;;4993213;28;20100;-64
2023/08/24 12:49:02;;;;;;;3.20;1.65;;;33.10;87.20;;;;;;4988775;28;20042;-67
2023/08/24 12:51:27;;;;;;;2.63;1.30;;;32.80;86.30;;;;;;4993100;28;20521;-65